Meteorología y climatología de Navarra
Datos de la estación - Meteo Navarra

Estación de Goizueta GN

Altitud 142 m.


Datos desde el 11/01/2019 hasta el 12/01/2019 en horario solar
Los datos son PROVISIONALES

Anterior Página 1 de 1 Siguiente Descargar: Formato para Excel 2000 o superior   Formato csv   Formato para OpenOffice Calc
Fecha Temperatura Humedad relativa Radiación global Insolación Precipitación Velocidad viento 10 m Velocidad viento 10 m Dirección viento 10 m
ºC % W/m² s l/m² m/s km/h º
11/01/2019 0:00 -0.3 98 - - - - 0.0 - - - - - -
11/01/2019 0:10 -0.2 98 - - - - 0.0 - - - - - -
11/01/2019 0:20 0.0 98 - - - - 0.0 - - - - - -
11/01/2019 0:30 0.2 97 - - - - 0.0 - - - - - -
11/01/2019 0:40 0.2 97 - - - - 0.0 - - - - - -
11/01/2019 0:50 0.2 97 - - - - 0.0 - - - - - -
11/01/2019 1:00 0.3 97 - - - - 0.0 - - - - - -
11/01/2019 1:10 0.4 97 - - - - 0.0 - - - - - -
11/01/2019 1:20 0.5 96 - - - - 0.0 - - - - - -
11/01/2019 1:30 0.5 95 - - - - 0.0 - - - - - -
11/01/2019 1:40 0.5 95 - - - - 0.0 - - - - - -
11/01/2019 1:50 0.6 95 - - - - 0.0 - - - - - -
11/01/2019 2:00 0.3 95 - - - - 0.0 - - - - - -
11/01/2019 2:10 -0.2 96 - - - - 0.0 - - - - - -
11/01/2019 2:20 -0.4 97 - - - - 0.0 - - - - - -
11/01/2019 2:30 -0.9 97 - - - - 0.0 - - - - - -
11/01/2019 2:40 -1.1 98 - - - - 0.0 - - - - - -
11/01/2019 2:50 -1.2 98 - - - - 0.0 - - - - - -
11/01/2019 3:00 -1.4 98 - - - - 0.0 - - - - - -
11/01/2019 3:10 -1.6 98 - - - - 0.0 - - - - - -
11/01/2019 3:20 -1.8 98 - - - - 0.0 - - - - - -
11/01/2019 3:30 -1.9 98 - - - - 0.0 - - - - - -
11/01/2019 3:40 -2.1 98 - - - - 0.0 - - - - - -
11/01/2019 3:50 -2.2 98 - - - - 0.0 - - - - - -
11/01/2019 4:00 -2.3 98 - - - - 0.0 - - - - - -
11/01/2019 4:10 -2.2 99 - - - - 0.0 - - - - - -
11/01/2019 4:20 -2.3 99 - - - - 0.0 - - - - - -
11/01/2019 4:30 -2.3 99 - - - - 0.0 - - - - - -
11/01/2019 4:40 -2.6 98 - - - - 0.0 - - - - - -
11/01/2019 4:50 -2.6 98 - - - - 0.0 - - - - - -
11/01/2019 5:00 -2.5 98 - - - - 0.0 - - - - - -
11/01/2019 5:10 -2.6 98 - - - - 0.0 - - - - - -
11/01/2019 5:20 -2.6 98 - - - - 0.0 - - - - - -
11/01/2019 5:30 -2.7 98 - - - - 0.0 - - - - - -
11/01/2019 5:40 -2.8 98 - - - - 0.0 - - - - - -
11/01/2019 5:50 -2.8 98 - - - - 0.0 - - - - - -
11/01/2019 6:00 -2.6 98 - - - - 0.0 - - - - - -
11/01/2019 6:10 -2.4 99 - - - - 0.0 - - - - - -
11/01/2019 6:20 -2.2 99 - - - - 0.0 - - - - - -
11/01/2019 6:30 -2.2 99 - - - - 0.0 - - - - - -
11/01/2019 6:40 -2.3 98 - - - - 0.0 - - - - - -
11/01/2019 6:50 -2.4 98 - - - - 0.0 - - - - - -
11/01/2019 7:00 -2.4 98 - - - - 0.0 - - - - - -
11/01/2019 7:10 -2.2 98 - - - - 0.0 - - - - - -
11/01/2019 7:20 -2.1 98 - - - - 0.0 - - - - - -
11/01/2019 7:30 -2.0 98 - - - - 0.0 - - - - - -
11/01/2019 7:40 -2.2 98 - - - - 0.0 - - - - - -
11/01/2019 7:50 -2.3 98 - - - - 0.0 - - - - - -
11/01/2019 8:00 -2.5 98 - - - - 0.0 - - - - - -
11/01/2019 8:10 -2.5 98 - - - - 0.0 - - - - - -
11/01/2019 8:20 -2.2 99 - - - - 0.0 - - - - - -
11/01/2019 8:30 -1.9 99 - - - - 0.0 - - - - - -
11/01/2019 8:40 -1.8 99 - - - - 0.0 - - - - - -
11/01/2019 8:50 -1.6 99 - - - - 0.0 - - - - - -
11/01/2019 9:00 -1.4 98 - - - - 0.0 - - - - - -
11/01/2019 9:10 -1.2 98 - - - - 0.0 - - - - - -
11/01/2019 9:20 -0.9 97 - - - - 0.0 - - - - - -
11/01/2019 9:30 -0.6 97 - - - - 0.0 - - - - - -
11/01/2019 9:40 -0.2 96 - - - - 0.0 - - - - - -
11/01/2019 9:50 0.1 93 - - - - 0.0 - - - - - -
11/01/2019 10:00 0.7 90 - - - - 0.0 - - - - - -
11/01/2019 10:10 1.0 88 - - - - 0.0 - - - - - -
11/01/2019 10:20 1.3 86 - - - - 0.0 - - - - - -
11/01/2019 10:30 1.9 85 - - - - 0.0 - - - - - -
11/01/2019 10:40 2.4 83 - - - - 0.0 - - - - - -
11/01/2019 10:50 3.1 81 - - - - 0.0 - - - - - -
11/01/2019 11:00 3.5 79 - - - - 0.0 - - - - - -
11/01/2019 11:10 3.5 79 - - - - 0.0 - - - - - -
11/01/2019 11:20 3.7 78 - - - - 0.0 - - - - - -
11/01/2019 11:30 4.2 76 - - - - 0.0 - - - - - -
11/01/2019 11:40 4.9 73 - - - - 0.0 - - - - - -
11/01/2019 11:50 5.6 64 - - - - 0.0 - - - - - -
11/01/2019 12:00 6.1 56 - - - - 0.0 - - - - - -
11/01/2019 12:10 6.3 53 - - - - 0.0 - - - - - -
11/01/2019 12:20 6.7 53 - - - - 0.0 - - - - - -
11/01/2019 12:30 6.6 50 - - - - 0.0 - - - - - -
11/01/2019 12:40 7.0 50 - - - - 0.0 - - - - - -
11/01/2019 12:50 7.0 48 - - - - 0.0 - - - - - -
11/01/2019 13:00 7.0 46 - - - - 0.0 - - - - - -
11/01/2019 13:10 7.1 45 - - - - 0.0 - - - - - -
11/01/2019 13:20 7.3 46 - - - - 0.0 - - - - - -
11/01/2019 13:30 7.5 46 - - - - 0.0 - - - - - -
11/01/2019 13:40 7.2 47 - - - - 0.0 - - - - - -
11/01/2019 13:50 7.3 49 - - - - 0.0 - - - - - -
11/01/2019 14:00 7.3 48 - - - - 0.0 - - - - - -
11/01/2019 14:10 7.4 48 - - - - 0.0 - - - - - -
11/01/2019 14:20 7.6 48 - - - - 0.0 - - - - - -
11/01/2019 14:30 7.6 47 - - - - 0.0 - - - - - -
11/01/2019 14:40 7.7 46 - - - - 0.0 - - - - - -
11/01/2019 14:50 7.4 48 - - - - 0.0 - - - - - -
11/01/2019 15:00 7.3 47 - - - - 0.0 - - - - - -
11/01/2019 15:10 7.0 48 - - - - 0.0 - - - - - -
11/01/2019 15:20 6.7 51 - - - - 0.0 - - - - - -
11/01/2019 15:30 6.3 54 - - - - 0.0 - - - - - -
11/01/2019 15:40 6.1 56 - - - - 0.0 - - - - - -
11/01/2019 15:50 5.4 63 - - - - 0.0 - - - - - -
11/01/2019 16:00 5.0 64 - - - - 0.0 - - - - - -
11/01/2019 16:10 4.4 71 - - - - 0.0 - - - - - -
11/01/2019 16:20 3.6 76 - - - - 0.0 - - - - - -
11/01/2019 16:30 3.0 79 - - - - 0.0 - - - - - -
11/01/2019 16:40 2.6 81 - - - - 0.0 - - - - - -
11/01/2019 16:50 2.4 83 - - - - 0.0 - - - - - -
11/01/2019 17:00 2.3 84 - - - - 0.0 - - - - - -
11/01/2019 17:10 2.1 85 - - - - 0.0 - - - - - -
11/01/2019 17:20 1.7 86 - - - - 0.0 - - - - - -
11/01/2019 17:30 1.5 89 - - - - 0.0 - - - - - -
11/01/2019 17:40 1.7 89 - - - - 0.0 - - - - - -
11/01/2019 17:50 2.0 88 - - - - 0.0 - - - - - -
11/01/2019 18:00 2.2 88 - - - - 0.0 - - - - - -
11/01/2019 18:10 2.4 87 - - - - 0.0 - - - - - -
11/01/2019 18:20 2.4 86 - - - - 0.0 - - - - - -
11/01/2019 18:30 2.5 82 - - - - 0.0 - - - - - -
11/01/2019 18:40 2.6 81 - - - - 0.0 - - - - - -
11/01/2019 18:50 2.6 80 - - - - 0.0 - - - - - -
11/01/2019 19:00 2.6 82 - - - - 0.0 - - - - - -
11/01/2019 19:10 2.6 82 - - - - 0.0 - - - - - -
11/01/2019 19:20 2.6 83 - - - - 0.0 - - - - - -
11/01/2019 19:30 2.6 83 - - - - 0.0 - - - - - -
11/01/2019 19:40 2.7 84 - - - - 0.0 - - - - - -
11/01/2019 19:50 2.7 84 - - - - 0.0 - - - - - -
11/01/2019 20:00 2.8 85 - - - - 0.0 - - - - - -
11/01/2019 20:10 2.8 86 - - - - 0.0 - - - - - -
11/01/2019 20:20 2.8 87 - - - - 0.0 - - - - - -
11/01/2019 20:30 2.8 86 - - - - 0.0 - - - - - -
11/01/2019 20:40 2.8 87 - - - - 0.0 - - - - - -
11/01/2019 20:50 2.9 85 - - - - 0.0 - - - - - -
11/01/2019 21:00 2.9 85 - - - - 0.0 - - - - - -
11/01/2019 21:10 2.8 86 - - - - 0.0 - - - - - -
11/01/2019 21:20 2.8 87 - - - - 0.0 - - - - - -
11/01/2019 21:30 2.8 87 - - - - 0.0 - - - - - -
11/01/2019 21:40 2.9 88 - - - - 0.0 - - - - - -
11/01/2019 21:50 3.0 88 - - - - 0.0 - - - - - -
11/01/2019 22:00 3.0 89 - - - - 0.0 - - - - - -
11/01/2019 22:10 3.0 88 - - - - 0.0 - - - - - -
11/01/2019 22:20 3.1 87 - - - - 0.0 - - - - - -
11/01/2019 22:30 3.1 88 - - - - 0.0 - - - - - -
11/01/2019 22:40 3.1 88 - - - - 0.0 - - - - - -
11/01/2019 22:50 3.1 87 - - - - 0.0 - - - - - -
11/01/2019 23:00 3.1 87 - - - - 0.0 - - - - - -
11/01/2019 23:10 3.0 87 - - - - 0.0 - - - - - -
11/01/2019 23:20 3.1 88 - - - - 0.0 - - - - - -
11/01/2019 23:30 3.1 89 - - - - 0.0 - - - - - -
11/01/2019 23:40 3.1 90 - - - - 0.0 - - - - - -
11/01/2019 23:50 3.1 89 - - - - 0.0 - - - - - -
Anterior Página 1 de 1 Siguiente

NOTA: Tipo de datos según el color:
   - Valores diarios o 10 minutos correctos
   - Valores diarios calculados a partir de un número de datos 10 minutos menor que 144 y mayor que 120, o de un número de datos semihorarios menor que 48 y mayor que 40 (caso de las estaciones de Riegos de Navarra y del MARM)
   - Valores diez minutos estimados


Contacto        Enlaces        Aviso legal